createdAt,value
2022-07-30T00:02:41.955Z,99442.03
2022-07-30T00:07:45.972Z,99429.78
2022-07-30T00:12:49.306Z,99430.03
2022-07-30T00:17:52.047Z,99433.25
2022-07-30T00:22:58.392Z,99428.88
2022-07-30T00:28:01.057Z,99428.28
2022-07-30T00:33:03.774Z,99423.13
2022-07-30T00:38:07.806Z,99419.81
2022-07-30T00:43:15.462Z,99423.84
2022-07-30T00:48:21.225Z,99424.91
2022-07-30T00:53:25.349Z,99432.47
2022-07-30T00:58:28.191Z,99424.56
2022-07-30T01:03:30.929Z,99424.81
2022-07-30T01:08:34.958Z,99418.00
2022-07-30T01:13:37.662Z,99422.81
2022-07-30T01:18:59.019Z,99416.81
2022-07-30T01:24:20.149Z,99415.41
2022-07-30T01:29:25.096Z,99414.59
2022-07-30T01:34:29.704Z,99409.66
2022-07-30T01:39:33.111Z,99408.25
2022-07-30T01:44:38.781Z,99412.00
2022-07-30T01:49:42.341Z,99417.91
2022-07-30T01:54:46.078Z,99420.88
2022-07-30T01:59:51.957Z,99427.34
2022-07-30T02:04:55.426Z,99436.78
2022-07-30T02:10:01.047Z,99430.81
2022-07-30T02:15:16.241Z,99433.97
2022-07-30T02:20:19.322Z,99439.38
2022-07-30T02:25:28.939Z,99436.13
2022-07-30T02:30:36.003Z,99436.56
2022-07-30T02:35:39.669Z,99439.53
2022-07-30T02:40:43.346Z,99439.75
2022-07-30T02:45:48.282Z,99435.41
2022-07-30T02:50:53.245Z,99448.34
2022-07-30T02:55:56.690Z,99434.47
2022-07-30T03:01:01.510Z,99443.88
2022-07-30T03:06:06.548Z,99443.88
2022-07-30T03:11:11.696Z,99450.59
2022-07-30T03:16:18.384Z,99453.53
2022-07-30T03:21:21.670Z,99451.06
2022-07-30T03:26:25.595Z,99449.88
2022-07-30T03:31:36.052Z,99457.78
2022-07-30T03:36:40.036Z,99457.41
2022-07-30T03:41:43.798Z,99449.56
2022-07-30T03:46:53.903Z,99458.72
2022-07-30T03:51:58.115Z,99453.66
2022-07-30T03:57:01.552Z,99456.50
2022-07-30T04:02:24.617Z,99468.38
2022-07-30T04:07:54.221Z,99454.50
2022-07-30T04:13:00.140Z,99473.44
2022-07-30T04:18:07.206Z,99476.38
2022-07-30T04:23:11.319Z,99485.56
2022-07-30T04:28:15.137Z,99481.22
2022-07-30T04:33:19.202Z,99489.31
2022-07-30T04:38:34.282Z,99495.78
2022-07-30T04:43:36.973Z,99500.16
2022-07-30T04:48:41.182Z,99496.38
2022-07-30T04:53:52.482Z,99520.84
2022-07-30T04:58:57.161Z,99515.44
2022-07-30T05:04:02.864Z,99536.63
2022-07-30T05:09:06.221Z,99539.72
2022-07-30T05:14:08.920Z,99536.41
2022-07-30T05:19:13.638Z,99541.34
2022-07-30T05:24:17.319Z,99537.56
2022-07-30T05:29:28.967Z,99547.34
2022-07-30T05:34:44.763Z,99547.84
2022-07-30T05:40:02.233Z,99550.19
2022-07-30T05:45:26.369Z,99552.53
2022-07-30T05:50:30.418Z,99549.72
2022-07-30T05:55:35.446Z,99557.84
2022-07-30T06:00:57.116Z,99556.88
2022-07-30T06:06:05.982Z,99561.59
2022-07-30T06:11:09.807Z,99548.41
2022-07-30T06:16:15.315Z,99570.78
2022-07-30T06:21:19.500Z,99566.19
2022-07-30T06:26:41.353Z,99565.59
2022-07-30T06:31:44.638Z,99580.44
2022-07-30T06:36:50.246Z,99583.50
2022-07-30T06:41:56.860Z,99579.97
2022-07-30T06:47:07.851Z,99576.41
2022-07-30T06:52:18.544Z,99590.72
2022-07-30T06:57:26.018Z,99583.88
2022-07-30T07:02:29.422Z,99591.44
2022-07-30T07:07:56.516Z,99597.13
2022-07-30T07:13:04.089Z,99596.91
2022-07-30T07:18:12.610Z,99607.41
2022-07-30T07:23:19.897Z,99609.84
2022-07-30T07:28:33.198Z,99605.41
2022-07-30T07:33:37.510Z,99613.75
2022-07-30T07:38:41.741Z,99620.47
2022-07-30T07:43:44.530Z,99614.81
2022-07-30T07:48:52.072Z,99614.81
2022-07-30T07:54:21.132Z,99622.81
2022-07-30T07:59:35.888Z,99618.47
2022-07-30T08:04:43.116Z,99617.38
2022-07-30T08:09:47.189Z,99619.88
2022-07-30T08:15:01.801Z,99631.97
2022-07-30T08:20:24.957Z,99631.50
2022-07-30T08:25:29.584Z,99635.94
2022-07-30T08:30:32.464Z,99616.97
2022-07-30T08:35:35.344Z,99624.94
2022-07-30T08:40:39.537Z,99626.94
2022-07-30T08:45:44.079Z,99617.97
2022-07-30T08:51:07.984Z,99626.44
2022-07-30T08:56:12.786Z,99628.34
2022-07-30T09:01:15.925Z,99638.13
2022-07-30T09:06:18.750Z,99631.53
2022-07-30T09:11:23.215Z,99633.63
2022-07-30T09:16:27.560Z,99634.84
2022-07-30T09:21:32.863Z,99634.63
2022-07-30T09:26:58.752Z,99631.88
2022-07-30T09:32:19.938Z,99632.56
2022-07-30T09:37:41.167Z,99645.00
2022-07-30T09:43:12.421Z,99636.63
2022-07-30T09:48:22.183Z,99629.34
2022-07-30T09:53:25.002Z,99632.25
2022-07-30T09:58:45.365Z,99640.50
2022-07-30T10:03:49.803Z,99629.81
2022-07-30T10:09:31.925Z,99649.41
2022-07-30T10:14:42.666Z,99637.84
2022-07-30T10:19:49.084Z,99640.06
2022-07-30T10:25:16.243Z,99640.78
2022-07-30T10:30:38.963Z,99639.16
2022-07-30T10:35:42.510Z,99644.31
2022-07-30T10:40:49.675Z,99601.47
2022-07-30T10:45:58.798Z,99636.44
2022-07-30T10:51:05.594Z,99637.00
2022-07-30T10:56:13.884Z,99640.78
2022-07-30T11:01:18.796Z,99639.69
2022-07-30T11:06:26.832Z,99636.75
2022-07-30T11:12:02.200Z,99632.97
2022-07-30T11:17:10.907Z,99623.19
2022-07-30T11:22:25.553Z,99623.19
2022-07-30T11:27:41.431Z,99616.97
2022-07-30T11:32:48.561Z,99612.13
2022-07-30T11:38:03.107Z,99604.53
2022-07-30T11:43:18.116Z,99608.09
2022-07-30T11:48:22.223Z,99619.50
2022-07-30T11:53:25.315Z,99609.50
2022-07-30T11:58:30.213Z,99615.50
2022-07-30T12:03:34.306Z,99619.88
2022-07-30T12:08:41.400Z,99612.31
2022-07-30T12:13:46.234Z,99616.66
2022-07-30T12:18:53.302Z,99626.44
2022-07-30T12:23:57.725Z,99626.22
2022-07-30T12:29:02.510Z,99618.66
2022-07-30T12:34:06.719Z,99614.88
2022-07-30T12:39:19.902Z,99602.03
2022-07-30T12:44:36.561Z,99607.09
2022-07-30T12:49:48.956Z,99610.34
2022-07-30T12:55:00.226Z,99608.22
2022-07-30T13:00:05.761Z,99607.72
2022-07-30T13:05:12.120Z,99613.16
2022-07-30T13:10:18.742Z,99602.66
2022-07-30T13:15:22.413Z,99607.00
2022-07-30T13:20:26.460Z,99606.50
2022-07-30T13:25:38.535Z,99607.59
2022-07-30T13:30:41.863Z,99609.00
2022-07-30T13:35:45.996Z,99604.97
2022-07-30T13:40:48.783Z,99612.88
2022-07-30T13:45:52.458Z,99603.91
2022-07-30T13:50:56.577Z,99607.81
2022-07-30T13:55:59.985Z,99601.56
2022-07-30T14:01:02.975Z,99595.63
2022-07-30T14:06:10.479Z,99599.97
2022-07-30T14:11:14.147Z,99589.72
2022-07-30T14:16:42.377Z,99581.31
2022-07-30T14:21:41.823Z,99582.47
2022-07-30T14:26:44.907Z,99581.16
2022-07-30T14:31:47.613Z,99571.94
2022-07-30T14:36:51.705Z,99573.31
2022-07-30T14:41:55.791Z,99567.66
2022-07-30T14:46:58.848Z,99572.84
2022-07-30T14:52:03.045Z,99559.84
2022-07-30T14:57:08.506Z,99569.38
2022-07-30T15:02:11.355Z,99564.53
2022-07-30T15:07:15.513Z,99571.34
2022-07-30T15:12:23.840Z,99568.97
2022-07-30T15:17:29.934Z,99564.91
2022-07-30T15:22:34.015Z,99563.88
2022-07-30T15:27:36.878Z,99564.69
2022-07-30T15:32:39.921Z,99568.81
2022-07-30T15:37:44.011Z,99564.19
2022-07-30T15:42:46.816Z,99572.09
2022-07-30T15:47:49.499Z,99577.53
2022-07-30T15:52:54.125Z,99568.56
2022-07-30T15:57:57.497Z,99569.13
2022-07-30T16:03:00.273Z,99565.34
2022-07-30T16:08:04.459Z,99566.97
2022-07-30T16:13:07.281Z,99566.97
2022-07-30T16:18:10.381Z,99568.66
2022-07-30T16:23:19.464Z,99568.38
2022-07-30T16:28:23.926Z,99566.47
2022-07-30T16:33:26.718Z,99558.91
2022-07-30T16:38:31.082Z,99560.56
2022-07-30T16:43:33.798Z,99554.06
2022-07-30T16:48:36.539Z,99549.69
2022-07-30T16:53:40.611Z,99560.56
2022-07-30T16:58:43.374Z,99550.53
2022-07-30T17:03:46.095Z,99556.75
2022-07-30T17:08:50.207Z,99559.47
2022-07-30T17:13:53.999Z,99551.91
2022-07-30T17:18:56.706Z,99545.66
2022-07-30T17:24:00.799Z,99550.81
2022-07-30T17:29:03.527Z,99552.50
2022-07-30T17:34:06.795Z,99554.94
2022-07-30T17:40:01.504Z,99563.09
2022-07-30T17:44:35.562Z,99572.06
2022-07-30T17:49:38.486Z,99578.34
2022-07-30T17:54:42.592Z,99574.53
2022-07-30T17:59:45.295Z,99576.44
2022-07-30T18:04:48.035Z,99578.06
2022-07-30T18:09:52.101Z,99581.59
2022-07-30T18:14:54.845Z,99582.41
2022-07-30T18:19:57.565Z,99583.28
2022-07-30T18:25:01.677Z,99585.72
2022-07-30T18:30:05.234Z,99595.78
2022-07-30T18:35:13.781Z,99589.25
2022-07-30T18:40:23.917Z,99603.91
2022-07-30T18:45:28.508Z,99602.03
2022-07-30T18:50:31.666Z,99600.38
2022-07-30T18:55:35.798Z,99602.03
2022-07-30T19:00:39.601Z,99602.03
2022-07-30T19:05:42.862Z,99600.97
2022-07-30T19:10:46.969Z,99598.84
2022-07-30T19:15:49.657Z,99596.13
2022-07-30T19:20:52.450Z,99593.97
2022-07-30T19:25:56.541Z,99600.00
2022-07-30T19:30:59.384Z,99598.91
2022-07-30T19:36:02.808Z,99603.28
2022-07-30T19:41:06.976Z,99604.91
2022-07-30T19:46:10.458Z,99609.31
2022-07-30T19:51:20.554Z,99605.50
2022-07-30T19:56:25.290Z,99607.97
2022-07-30T20:01:40.545Z,99615.06
2022-07-30T20:06:46.160Z,99612.34
2022-07-30T20:11:50.461Z,99615.06
2022-07-30T20:16:53.323Z,99612.09
2022-07-30T20:21:57.898Z,99618.59
2022-07-30T20:27:35.390Z,99617.75
2022-07-30T20:32:25.742Z,99627.81
2022-07-30T20:37:28.533Z,99618.84
2022-07-30T20:42:33.506Z,99633.25
2022-07-30T20:47:38.728Z,99628.88
2022-07-30T20:52:46.842Z,99628.88
2022-07-30T20:58:00.373Z,99633.50
2022-07-30T21:03:16.217Z,99624.75
2022-07-30T21:08:18.864Z,99628.31
2022-07-30T21:13:26.165Z,99619.09
2022-07-30T21:18:29.077Z,99616.38
2022-07-30T21:23:31.962Z,99612.84
2022-07-30T21:28:36.794Z,99617.47
2022-07-30T21:33:39.851Z,99609.53
2022-07-30T21:38:43.368Z,99605.75
2022-07-30T21:43:49.350Z,99612.25
2022-07-30T22:07:50.696Z,99585.00
2022-07-30T22:12:53.290Z,99590.44
2022-07-30T22:18:00.919Z,99590.69
2022-07-30T22:23:06.022Z,99594.44
2022-07-30T22:28:08.712Z,99590.09
2022-07-30T22:33:13.544Z,99586.53
2022-07-30T22:38:19.817Z,99585.13
2022-07-30T22:43:22.558Z,99581.59
2022-07-30T22:48:26.476Z,99583.78
2022-07-30T22:54:11.096Z,99575.03
2022-07-30T22:58:56.851Z,99574.69
2022-07-30T23:03:59.488Z,99576.94
2022-07-30T23:09:05.716Z,99583.44
2022-07-30T23:12:32.093Z,99606.81
2022-07-30T23:14:10.083Z,99584.50
2022-07-30T23:19:20.063Z,99585.03
2022-07-30T23:24:26.256Z,99588.56
2022-07-30T23:29:29.392Z,99581.72
2022-07-30T23:34:32.214Z,99579.81
2022-07-30T23:39:36.197Z,99563.75
2022-07-30T23:44:39.345Z,99564.84
2022-07-30T23:49:42.570Z,99574.06
2022-07-30T23:54:46.643Z,99558.00
2022-07-30T23:59:49.239Z,99552.00
